Time;durP1;ratioP1;P1;durP2;ratioP2;P2;SDS_P1;SDS_P2;PMS_P1;PMS_P2;Temp;Humidity;BMP_temperature;BMP_pressure;BME280_temperature;BME280_humidity;BME280_pressure;Samples;Min_cycle;Max_cycle;Signal;HPM_P1;HPM_P2
2021/10/12 00:00:28;;;;;;;4.78;2.40;;;;;;;15.10;60.78;102394.06;4927357;28;123892;-71
2021/10/12 00:02:55;;;;;;;7.38;2.63;;;;;;;15.09;60.80;102392.34;4911178;28;122402;-71
2021/10/12 00:05:22;;;;;;;7.45;2.47;;;;;;;15.08;60.79;102390.59;4930354;28;119118;-71
2021/10/12 00:07:49;;;;;;;3.75;2.05;;;;;;;15.08;61.05;102390.59;4924988;28;120260;-71
2021/10/12 00:10:16;;;;;;;3.50;2.10;;;;;;;15.07;60.95;102396.84;4923202;28;123923;-71
2021/10/12 00:12:44;;;;;;;7.60;2.40;;;;;;;15.07;61.01;102394.16;4925766;28;124594;-71
2021/10/12 00:15:11;;;;;;;4.30;1.85;;;;;;;15.05;61.05;102385.34;4928084;28;119319;-72
2021/10/12 00:17:38;;;;;;;4.45;2.28;;;;;;;15.05;61.05;102377.34;4964082;22;119395;-64
2021/10/12 00:20:06;;;;;;;5.05;2.35;;;;;;;15.03;61.15;102382.78;4952008;28;124846;-64
2021/10/12 00:22:35;;;;;;;5.53;2.30;;;;;;;15.03;61.25;102376.53;4953053;28;123464;-64
2021/10/12 00:25:04;;;;;;;7.07;2.33;;;;;;;15.02;61.14;102370.34;4966586;28;119442;-64
2021/10/12 00:27:31;;;;;;;6.63;2.50;;;;;;;15.00;61.26;102374.88;4967961;28;118970;-63
2021/10/12 00:29:58;;;;;;;6.60;2.30;;;;;;;14.98;61.18;102369.59;4949297;28;125383;-63
2021/10/12 00:32:25;;;;;;;5.55;2.25;;;;;;;14.95;61.21;102364.38;4951624;28;122957;-64
2021/10/12 00:34:52;;;;;;;6.18;2.20;;;;;;;14.93;61.30;102371.56;4968602;28;119147;-63
2021/10/12 00:37:20;;;;;;;6.97;2.20;;;;;;;14.91;61.31;102362.75;4954620;28;117952;-63
2021/10/12 00:39:47;;;;;;;7.68;2.45;;;;;;;14.91;61.47;102360.09;4966240;28;124176;-64
2021/10/12 00:42:15;;;;;;;5.88;2.22;;;;;;;14.92;61.54;102359.16;4964986;28;124127;-64
2021/10/12 00:44:44;;;;;;;6.32;2.25;;;;;;;14.90;61.40;102358.38;4966192;28;119261;-64
2021/10/12 00:47:12;;;;;;;7.57;2.17;;;;;;;14.91;61.43;102357.41;4969022;28;119667;-63
2021/10/12 00:49:39;;;;;;;5.75;2.20;;;;;;;14.91;61.45;102354.75;4936383;28;123033;-64
2021/10/12 00:52:06;;;;;;;6.63;2.75;;;;;;;14.90;61.52;102350.34;4966451;28;123720;-64
2021/10/12 00:54:33;;;;;;;5.20;1.98;;;;;;;14.91;61.40;102352.09;4967178;28;123342;-64
2021/10/12 00:57:01;;;;;;;5.55;1.90;;;;;;;14.91;61.46;102352.09;4951329;28;119869;-63
2021/10/12 00:59:28;;;;;;;4.18;2.08;;;;;;;14.91;61.45;102351.22;4967314;28;123898;-64
2021/10/12 01:01:55;;;;;;;5.70;2.20;;;;;;;14.89;61.48;102348.59;4966029;28;123742;-64
2021/10/12 01:04:22;;;;;;;6.40;2.28;;;;;;;14.89;61.68;102348.59;4966289;28;119366;-64
2021/10/12 01:06:49;;;;;;;4.28;2.25;;;;;;;14.89;61.58;102343.28;4968478;28;119297;-64
2021/10/12 01:09:16;;;;;;;6.07;2.33;;;;;;;14.86;61.50;102343.41;4965268;28;124320;-64
2021/10/12 01:11:45;;;;;;;7.13;2.10;;;;;;;14.86;61.64;102335.41;4967824;28;124315;-64
2021/10/12 01:14:12;;;;;;;6.10;2.17;;;;;;;14.86;61.59;102338.06;4967969;28;119404;-64
2021/10/12 01:16:39;;;;;;;6.82;2.13;;;;;;;14.86;61.50;102338.06;4967711;28;119268;-63
2021/10/12 01:19:08;;;;;;;7.28;2.30;;;;;;;14.85;61.63;102341.66;4963964;28;124269;-63
2021/10/12 01:21:40;;;;;;;5.93;2.10;;;;;;;14.83;61.67;102332.84;4964210;28;125391;-64
2021/10/12 01:24:08;;;;;;;6.85;2.25;;;;;;;14.83;61.60;102322.19;4965848;28;119441;-63
2021/10/12 01:26:36;;;;;;;4.07;2.10;;;;;;;14.83;61.74;102315.97;4951342;28;117670;-63
2021/10/12 01:29:03;;;;;;;6.40;2.00;;;;;;;14.82;61.70;102320.44;4952566;28;123168;-63
2021/10/12 01:31:30;;;;;;;3.95;1.73;;;;;;;14.83;61.80;102316.84;4965900;28;123796;-64
2021/10/12 01:33:58;;;;;;;5.10;1.88;;;;;;;14.83;61.75;102306.19;4952656;28;120153;-64
2021/10/12 01:36:26;;;;;;;6.70;1.98;;;;;;;14.84;61.60;102307.03;4971088;28;118966;-64
2021/10/12 01:38:53;;;;;;;3.75;1.90;;;;;;;14.83;61.70;102300.84;4972413;28;124126;-63
2021/10/12 01:41:20;;;;;;;7.13;1.90;;;;;;;14.81;61.64;102292.03;4971342;28;123992;-64
2021/10/12 01:43:47;;;;;;;6.72;2.03;;;;;;;14.81;61.60;102286.69;4970774;28;120545;-65
2021/10/12 01:46:14;;;;;;;3.85;1.83;;;;;;;14.82;61.90;102277.75;4976083;28;119935;-65
2021/10/12 01:48:41;;;;;;;4.45;1.80;;;;;;;14.81;61.69;102270.69;4969368;28;124630;-64
2021/10/12 01:51:08;;;;;;;4.32;1.80;;;;;;;14.81;61.56;102270.69;4972976;28;124589;-64
2021/10/12 01:53:35;;;;;;;5.03;2.00;;;;;;;14.81;61.62;102265.34;4971923;28;120125;-64
2021/10/12 01:56:04;;;;;;;3.80;1.60;;;;;;;14.81;61.82;102265.34;4969615;28;119209;-64
2021/10/12 01:58:31;;;;;;;6.20;1.98;;;;;;;14.80;61.71;102263.59;4970464;28;123962;-64
2021/10/12 02:00:58;;;;;;;5.57;1.88;;;;;;;14.78;61.71;102246.81;4969692;28;123966;-65
2021/10/12 02:03:27;;;;;;;6.05;2.00;;;;;;;14.77;61.66;102255.75;4974078;28;119673;-64
2021/10/12 02:05:54;;;;;;;4.85;2.22;;;;;;;14.76;61.73;102256.66;4969671;28;118854;-64
2021/10/12 02:08:21;;;;;;;8.45;2.35;;;;;;;14.74;61.78;102253.19;4955102;28;123358;-64
2021/10/12 02:10:48;;;;;;;6.47;2.00;;;;;;;14.73;61.75;102256.78;4953277;28;122907;-64
2021/10/12 02:13:15;;;;;;;6.75;1.90;;;;;;;14.71;61.77;102253.31;4966407;28;119122;-64
2021/10/12 02:15:43;;;;;;;6.55;2.03;;;;;;;14.71;61.90;102242.63;4969433;28;119932;-64
2021/10/12 02:18:11;;;;;;;6.97;2.28;;;;;;;14.69;61.92;102239.16;4969970;28;124363;-64
2021/10/12 02:20:38;;;;;;;4.15;2.20;;;;;;;14.67;61.94;102247.22;4968489;28;124642;-64
2021/10/12 02:23:05;;;;;;;7.40;1.90;;;;;;;14.65;61.86;102237.56;4971310;28;119662;-64
2021/10/12 02:25:32;;;;;;;7.70;2.28;;;;;;;14.64;61.89;102242.03;4977497;28;119061;-64
2021/10/12 02:28:00;;;;;;;13.25;2.20;;;;;;;14.63;61.92;102244.75;4969068;28;124750;-64
2021/10/12 02:30:27;;;;;;;6.15;2.20;;;;;;;14.60;61.65;102235.94;4968753;28;124186;-64
2021/10/12 02:32:54;;;;;;;5.13;2.20;;;;;;;14.59;61.87;102234.19;4955116;28;118985;-64
2021/10/12 02:35:21;;;;;;;5.50;1.98;;;;;;;14.59;62.18;102228.00;4968789;28;119964;-64
2021/10/12 02:37:48;;;;;;;5.28;2.00;;;;;;;14.58;61.94;102216.47;4970822;28;123907;-64
2021/10/12 02:40:15;;;;;;;9.02;2.40;;;;;;;14.57;61.98;102214.72;4967696;28;123707;-64
2021/10/12 02:42:43;;;;;;;5.38;2.20;;;;;;;14.56;62.14;102212.09;4950690;28;119242;-64
2021/10/12 02:45:10;;;;;;;8.45;2.33;;;;;;;14.54;62.07;102213.94;4970975;28;119275;-64
2021/10/12 02:47:37;;;;;;;10.27;2.70;;;;;;;14.51;62.10;102214.94;4967800;28;124404;-64
2021/10/12 02:50:06;;;;;;;7.03;2.50;;;;;;;14.51;62.04;102204.28;4969982;28;123746;-64
2021/10/12 02:52:33;;;;;;;8.07;2.22;;;;;;;14.51;62.15;102206.09;4965519;28;119928;-64
2021/10/12 02:55:03;;;;;;;6.80;2.50;;;;;;;14.49;62.20;102206.16;4951003;28;119113;-64
2021/10/12 02:57:32;;;;;;;7.78;2.60;;;;;;;14.48;62.15;102220.38;4968399;28;124777;-64
2021/10/12 02:59:59;;;;;;;6.00;2.35;;;;;;;14.47;62.05;102208.00;4967246;28;123981;-64
2021/10/12 03:02:26;;;;;;;6.93;2.60;;;;;;;14.45;62.23;102199.19;4952900;28;118306;-64
2021/10/12 03:04:54;;;;;;;7.60;2.42;;;;;;;14.45;62.21;102204.53;4970489;28;118932;-64
2021/10/12 03:07:21;;;;;;;9.13;2.42;;;;;;;14.45;62.08;102193.88;4954245;28;122955;-64
2021/10/12 03:09:48;;;;;;;4.13;2.30;;;;;;;14.45;62.25;102188.53;4969523;28;124672;-64
2021/10/12 03:12:15;;;;;;;5.53;2.40;;;;;;;14.43;62.17;102189.50;4967808;28;119205;-64
2021/10/12 03:14:43;;;;;;;5.80;2.22;;;;;;;14.41;62.18;102187.78;4970085;28;119082;-64
2021/10/12 03:17:10;;;;;;;5.57;2.38;;;;;;;14.39;62.08;102178.09;4972606;28;124729;-64
2021/10/12 03:19:37;;;;;;;7.55;2.33;;;;;;;14.40;62.28;102174.53;4966882;28;123973;-64
2021/10/12 03:22:11;;;;;;;6.00;2.35;;;;;;;14.40;62.24;102172.72;4952779;28;120306;-64
2021/10/12 03:24:38;;;;;;;10.82;2.65;;;;;;;14.40;62.20;102175.38;4968602;28;120232;-64
2021/10/12 03:27:07;;;;;;;8.05;2.35;;;;;;;14.40;62.32;102174.53;4952511;28;123980;-64
2021/10/12 03:29:35;;;;;;;7.38;2.03;;;;;;;14.41;62.16;102173.59;4951344;28;123565;-64
2021/10/12 03:32:02;;;;;;;9.50;2.47;;;;;;;14.39;62.18;102173.66;4969579;28;119358;-64
2021/10/12 03:34:31;;;;;;;10.57;2.28;;;;;;;14.39;62.20;102162.09;4952177;28;118578;-64
2021/10/12 03:36:59;;;;;;;7.80;2.28;;;;;;;14.38;62.33;102165.72;4969336;28;124119;-64
2021/10/12 03:39:27;;;;;;;6.38;2.03;;;;;;;14.37;62.51;102161.31;4968668;28;124591;-64
2021/10/12 03:41:54;;;;;;;9.77;2.30;;;;;;;14.36;62.19;102156.91;4970508;28;119240;-64
2021/10/12 03:44:23;;;;;;;5.78;2.17;;;;;;;14.35;62.19;102145.41;4969868;28;119372;-64
2021/10/12 03:46:51;;;;;;;8.07;2.40;;;;;;;14.36;62.24;102146.25;4972000;28;124348;-64
2021/10/12 03:49:18;;;;;;;9.70;1.90;;;;;;;14.35;62.17;102145.41;4946538;28;124135;-64
2021/10/12 03:51:45;;;;;;;6.13;1.70;;;;;;;14.34;62.27;102134.78;4968502;28;119422;-64
2021/10/12 03:54:13;;;;;;;7.50;2.15;;;;;;;14.32;62.32;102134.00;4968011;28;118834;-64
2021/10/12 03:56:41;;;;;;;5.00;2.10;;;;;;;14.32;62.29;102134.84;4969336;28;123973;-64
2021/10/12 03:59:08;;;;;;;7.22;1.83;;;;;;;14.33;62.28;102138.38;4968925;28;124661;-64
2021/10/12 04:01:35;;;;;;;8.07;2.10;;;;;;;14.34;62.42;102132.13;4950101;28;119454;-64
2021/10/12 04:04:03;;;;;;;7.88;2.00;;;;;;;14.33;62.42;102125.03;4949859;28;119712;-64
2021/10/12 04:06:30;;;;;;;5.38;1.80;;;;;;;14.32;62.32;102118.84;4971580;28;124764;-64
2021/10/12 04:08:57;;;;;;;6.80;1.92;;;;;;;14.32;62.35;102118.00;4965806;28;124312;-64
2021/10/12 04:11:24;;;;;;;6.63;1.80;;;;;;;14.32;62.33;102118.00;4974399;28;120519;-64
2021/10/12 04:13:52;;;;;;;5.13;1.73;;;;;;;14.32;62.22;102112.66;4969336;28;120335;-64
2021/10/12 04:16:19;;;;;;;7.05;1.90;;;;;;;14.32;62.29;102113.53;4965809;28;124882;-64
2021/10/12 04:18:46;;;;;;;7.10;1.73;;;;;;;14.31;62.48;102110.91;4970717;28;124625;-64
2021/10/12 04:21:14;;;;;;;5.30;2.10;;;;;;;14.30;62.20;102103.88;4968202;28;123942;-64
2021/10/12 04:23:41;;;;;;;6.10;1.70;;;;;;;14.29;62.14;102102.13;4972726;28;119299;-64
2021/10/12 04:26:11;;;;;;;4.50;1.73;;;;;;;14.29;62.45;102107.44;4972896;28;124521;-64
2021/10/12 04:28:39;;;;;;;5.65;1.75;;;;;;;14.28;62.32;102105.69;4941903;28;122780;-64
2021/10/12 04:31:06;;;;;;;3.63;1.40;;;;;;;14.29;62.46;102102.97;4967349;28;119378;-63
2021/10/12 04:33:34;;;;;;;4.35;1.38;;;;;;;14.29;62.34;102092.31;4969163;28;119751;-64
2021/10/12 04:36:01;;;;;;;3.05;1.20;;;;;;;14.30;62.44;102101.19;4967320;28;124675;-64
2021/10/12 04:38:29;;;;;;;5.07;1.60;;;;;;;14.31;62.34;102101.13;4965717;28;123714;-64
2021/10/12 04:40:56;;;;;;;4.13;1.52;;;;;;;14.32;62.39;102107.34;4969154;28;119855;-64
2021/10/12 04:43:24;;;;;;;7.90;1.52;;;;;;;14.32;62.41;102096.69;4969117;28;119059;-64
2021/10/12 04:45:51;;;;;;;5.03;1.60;;;;;;;14.31;62.30;102092.25;4967037;28;124351;-64
2021/10/12 04:48:18;;;;;;;7.80;1.88;;;;;;;14.29;62.45;102091.47;4967111;28;124536;-64
2021/10/12 04:50:45;;;;;;;5.80;1.52;;;;;;;14.28;62.36;102090.59;4971503;28;119115;-63
2021/10/12 04:53:12;;;;;;;4.93;1.55;;;;;;;14.27;62.53;102090.66;4953519;28;118293;-64
2021/10/12 04:55:42;;;;;;;6.53;1.77;;;;;;;14.26;62.53;102083.56;4951965;28;124021;-64
2021/10/12 04:58:10;;;;;;;5.82;1.80;;;;;;;14.24;62.43;102077.44;4966834;28;123841;-64
2021/10/12 05:00:37;;;;;;;6.07;2.20;;;;;;;14.22;62.44;102090.81;4950364;28;119166;-63
2021/10/12 05:03:05;;;;;;;5.57;1.98;;;;;;;14.21;62.73;102084.63;4967673;28;120225;-64
2021/10/12 05:05:34;;;;;;;4.63;2.00;;;;;;;14.20;62.60;102077.59;4966172;28;123920;-64
2021/10/12 05:08:01;;;;;;;6.63;1.83;;;;;;;14.21;62.62;102073.97;4966128;28;124295;-64
2021/10/12 05:10:28;;;;;;;10.07;2.28;;;;;;;14.20;62.69;102061.59;4950896;28;118157;-64
2021/10/12 05:12:55;;;;;;;4.05;1.85;;;;;;;14.19;62.73;102065.19;4966766;28;119019;-64
2021/10/12 05:15:25;;;;;;;6.55;2.20;;;;;;;14.17;62.78;102056.38;4966026;28;124371;-64
2021/10/12 05:17:52;;;;;;;4.88;2.22;;;;;;;14.17;62.86;102050.19;4953235;28;123820;-64
2021/10/12 05:20:20;;;;;;;7.25;2.25;;;;;;;14.17;62.98;102052.88;4965517;28;119197;-64
2021/10/12 05:22:47;;;;;;;8.40;1.90;;;;;;;14.15;62.80;102052.91;4966007;28;119519;-64
2021/10/12 05:25:15;;;;;;;6.35;2.00;;;;;;;14.14;63.02;102051.16;4966156;28;124133;-64
2021/10/12 05:27:43;;;;;;;5.88;2.28;;;;;;;14.15;63.05;102050.25;4967065;28;123903;-65
2021/10/12 05:30:12;;;;;;;7.40;2.10;;;;;;;14.14;62.95;102050.31;4949721;28;118273;-63
2021/10/12 05:32:40;;;;;;;6.40;2.10;;;;;;;14.11;62.96;102056.66;4969114;28;118825;-64
2021/10/12 05:35:09;;;;;;;5.22;2.10;;;;;;;14.12;63.02;102042.38;4965799;28;124468;-64
2021/10/12 05:37:36;;;;;;;6.25;2.20;;;;;;;14.11;63.11;102042.44;4949255;28;124835;-64
2021/10/12 05:40:04;;;;;;;5.32;2.38;;;;;;;14.12;63.02;102042.38;4966904;28;120087;-63
2021/10/12 05:42:32;;;;;;;7.30;2.20;;;;;;;14.14;63.18;102040.50;4966885;28;118800;-64
2021/10/12 05:44:59;;;;;;;4.88;1.90;;;;;;;14.15;63.29;102036.94;4965915;28;123963;-64
2021/10/12 05:47:26;;;;;;;6.70;2.30;;;;;;;14.15;63.24;102042.25;4965721;28;124099;-64
2021/10/12 05:49:53;;;;;;;8.35;2.20;;;;;;;14.15;63.14;102041.41;4970342;28;120143;-64
2021/10/12 05:52:22;;;;;;;6.22;2.17;;;;;;;14.17;63.13;102029.75;4950641;28;118905;-64
2021/10/12 05:55:05;;;;;;;6.82;2.28;;;;;;;14.18;63.27;102041.25;4949524;28;124080;-64
2021/10/12 05:57:54;;;;;;;5.68;2.47;;;;;;;14.18;63.23;102036.81;4964578;28;123871;-64
2021/10/12 06:00:22;;;;;;;8.20;2.55;;;;;;;14.19;63.24;102032.34;4963742;28;119585;-65
2021/10/12 06:02:49;;;;;;;7.28;2.47;;;;;;;14.18;63.31;102028.81;4950041;28;119443;-64
2021/10/12 06:05:16;;;;;;;7.72;2.38;;;;;;;14.18;63.32;102026.16;4965641;28;124114;-64
2021/10/12 06:07:43;;;;;;;5.82;2.42;;;;;;;14.19;63.38;102022.56;4953064;28;122768;-64
2021/10/12 06:10:10;;;;;;;5.45;2.10;;;;;;;14.20;63.36;102018.97;4975997;28;119269;-64
2021/10/12 06:12:37;;;;;;;7.93;2.67;;;;;;;14.19;63.54;102014.56;4955909;28;118574;-64
2021/10/12 06:15:05;;;;;;;7.07;2.50;;;;;;;14.20;63.25;102018.97;4970455;28;124771;-64
2021/10/12 06:17:32;;;;;;;6.50;2.50;;;;;;;14.20;63.55;102013.63;4956750;28;123473;-64
2021/10/12 06:19:59;;;;;;;4.75;2.50;;;;;;;14.21;63.58;102011.84;4951197;28;119303;-64
2021/10/12 06:22:27;;;;;;;7.57;3.00;;;;;;;14.23;63.53;102011.78;4968730;28;119415;-64
2021/10/12 06:24:54;;;;;;;6.28;2.88;;;;;;;14.25;63.47;102009.91;4956560;28;124822;-64
2021/10/12 06:27:21;;;;;;;8.45;3.00;;;;;;;14.26;63.54;102000.97;4971756;28;123991;-64
2021/10/12 06:29:48;;;;;;;8.02;2.70;;;;;;;14.28;63.71;102004.44;4953141;28;118249;-64
2021/10/12 06:32:16;;;;;;;9.27;2.88;;;;;;;14.31;63.58;101998.97;4969230;28;118786;-63
2021/10/12 06:34:43;;;;;;;9.48;2.85;;;;;;;14.31;63.62;102001.66;4953929;28;122400;-63
2021/10/12 06:37:10;;;;;;;8.65;3.03;;;;;;;14.33;63.65;101999.78;4971442;28;124174;-63
2021/10/12 06:39:38;;;;;;;5.45;2.78;;;;;;;14.34;63.68;101994.41;4966560;28;120614;-63
2021/10/12 06:42:05;;;;;;;7.93;3.17;;;;;;;14.36;63.70;101997.00;4968225;28;120180;-63
2021/10/12 06:44:32;;;;;;;6.20;2.85;;;;;;;14.37;63.87;101990.72;4967668;28;124097;-64
2021/10/12 06:46:59;;;;;;;7.65;4.05;;;;;;;14.38;63.70;101995.13;4953541;28;124001;-64
2021/10/12 06:49:26;;;;;;;6.78;2.95;;;;;;;14.39;63.77;101991.53;4967111;28;119703;-63
2021/10/12 06:51:53;;;;;;;7.63;3.20;;;;;;;14.40;63.73;101988.78;4968690;28;119671;-64
2021/10/12 06:54:20;;;;;;;9.02;3.35;;;;;;;14.43;63.90;101982.50;4941410;28;123074;-63
2021/10/12 06:56:49;;;;;;;6.65;3.17;;;;;;;14.43;63.88;101990.50;4968211;28;123817;-64
2021/10/12 06:59:16;;;;;;;8.07;3.50;;;;;;;14.45;63.84;101985.94;4968867;28;119639;-64
2021/10/12 07:01:43;;;;;;;7.78;3.60;;;;;;;14.47;63.94;101986.75;4968522;28;118836;-64
2021/10/12 07:04:11;;;;;;;5.38;3.45;;;;;;;14.50;63.82;101983.94;4967486;28;123965;-64
2021/10/12 07:06:38;;;;;;;7.40;3.65;;;;;;;14.52;63.89;101982.09;4969900;28;123942;-64
2021/10/12 07:09:05;;;;;;;6.88;3.55;;;;;;;14.54;64.01;101980.22;4967452;28;120108;-63
2021/10/12 07:11:32;;;;;;;8.15;3.47;;;;;;;14.54;64.10;101974.91;4968252;28;118850;-63
2021/10/12 07:14:00;;;;;;;7.93;3.40;;;;;;;14.56;64.08;101973.03;4952621;28;123043;-64
2021/10/12 07:16:27;;;;;;;6.97;3.60;;;;;;;14.58;64.07;101981.84;4952123;28;122980;-64
2021/10/12 07:18:54;;;;;;;7.78;3.33;;;;;;;14.62;64.02;101976.38;4969077;28;119528;-64
2021/10/12 07:21:21;;;;;;;6.95;3.58;;;;;;;14.64;64.03;101969.19;4967545;28;119245;-64
2021/10/12 07:23:48;;;;;;;7.85;3.50;;;;;;;14.66;64.20;101970.00;4968196;28;124241;-64
2021/10/12 07:26:16;;;;;;;6.97;3.40;;;;;;;14.68;64.00;101970.78;4968107;28;123980;-64
2021/10/12 07:28:43;;;;;;;9.82;4.13;;;;;;;14.69;63.96;101967.16;4966988;28;121187;-65
2021/10/12 07:31:10;;;;;;;8.15;3.83;;;;;;;14.71;64.03;101965.28;4966690;28;119862;-64
2021/10/12 07:33:37;;;;;;;8.48;4.00;;;;;;;14.72;64.09;101967.03;4966013;28;123900;-64
2021/10/12 07:36:05;;;;;;;7.68;4.20;;;;;;;14.74;64.25;101965.16;4967904;28;124064;-64
2021/10/12 07:38:32;;;;;;;6.85;4.18;;;;;;;14.76;64.08;101958.81;4966025;28;119420;-64
2021/10/12 07:40:59;;;;;;;8.95;4.60;;;;;;;14.78;64.17;101961.44;4952228;28;117884;-65
2021/10/12 07:43:26;;;;;;;8.48;4.40;;;;;;;14.81;64.19;101960.44;4968605;28;123471;-65
2021/10/12 07:45:54;;;;;;;8.98;4.95;;;;;;;14.82;64.25;101957.69;4969861;28;123888;-65
2021/10/12 07:48:22;;;;;;;9.68;5.20;;;;;;;14.84;64.10;101954.94;4966041;28;120311;-65
2021/10/12 07:50:50;;;;;;;9.77;4.60;;;;;;;14.85;64.12;101956.69;4976134;28;118906;-65
2021/10/12 07:53:17;;;;;;;9.15;4.40;;;;;;;14.86;64.22;101956.63;4967704;28;124063;-65
2021/10/12 07:58:15;;;;;;;7.90;4.43;;;;;;;14.88;64.14;101956.53;4945244;28;118092;-65
2021/10/12 08:00:45;;;;;;;8.00;4.60;;;;;;;14.89;64.26;101959.13;4968436;28;119585;-65
2021/10/12 08:03:14;;;;;;;10.43;4.78;;;;;;;14.90;64.49;101955.56;4939535;28;123372;-65
2021/10/12 08:05:41;;;;;;;8.68;4.72;;;;;;;14.90;64.35;101955.56;4966701;28;123789;-65
2021/10/12 08:08:09;;;;;;;8.52;5.10;;;;;;;14.92;64.33;101945.69;4967242;28;119550;-65
2021/10/12 08:10:38;;;;;;;7.75;5.05;;;;;;;14.96;64.31;101944.59;4964770;28;119125;-65
2021/10/12 08:13:08;;;;;;;14.15;6.10;;;;;;;15.01;64.46;101940.84;4952493;28;123494;-65
2021/10/12 08:15:36;;;;;;;12.13;5.78;;;;;;;15.03;64.21;101949.63;4947915;28;122608;-64
2021/10/12 08:18:03;;;;;;;11.32;5.30;;;;;;;15.05;64.16;101942.44;4952033;28;120136;-65
2021/10/12 08:20:30;;;;;;;10.95;5.57;;;;;;;15.06;64.13;101938.84;4966774;28;119827;-65
2021/10/12 08:22:57;;;;;;;11.45;5.20;;;;;;;15.05;64.26;101937.09;4969024;28;124274;-65
2021/10/12 08:25:25;;;;;;;11.27;5.55;;;;;;;15.07;64.33;101941.44;4947891;28;123500;-64
2021/10/12 08:27:52;;;;;;;10.98;6.03;;;;;;;15.10;64.33;101940.41;4966136;28;119374;-64
2021/10/12 08:30:19;;;;;;;11.10;6.05;;;;;;;15.14;64.33;101936.66;4947990;28;119012;-65
2021/10/12 08:32:46;;;;;;;12.88;6.07;;;;;;;15.18;64.39;101933.81;4951790;28;122947;-65
2021/10/12 08:35:14;;;;;;;9.98;5.22;;;;;;;15.23;64.31;101941.56;4967880;28;123801;-64
2021/10/12 08:37:41;;;;;;;11.55;5.93;;;;;;;15.26;64.37;101933.44;4967457;28;119955;-65
2021/10/12 08:40:14;;;;;;;13.07;5.85;;;;;;;15.30;64.42;101926.16;4963374;28;118883;-65
2021/10/12 08:42:47;;;;;;;12.40;5.68;;;;;;;15.35;64.44;101924.09;4966488;28;123864;-65
2021/10/12 08:45:15;;;;;;;11.85;5.85;;;;;;;15.39;64.45;101931.06;4967268;28;124291;-65
2021/10/12 08:47:43;;;;;;;10.82;5.82;;;;;;;15.43;64.42;101926.44;4967743;28;120119;-65
2021/10/12 08:50:15;;;;;;;12.13;6.03;;;;;;;15.48;64.48;101919.03;4950576;28;119125;-65
2021/10/12 08:52:44;;;;;;;11.68;6.10;;;;;;;15.54;64.50;101918.78;4951983;28;123086;-65
2021/10/12 08:55:12;;;;;;;11.30;6.60;;;;;;;15.63;64.69;101922.78;4968985;28;125241;-65
2021/10/12 08:57:43;;;;;;;11.77;6.40;;;;;;;15.70;64.61;101918.88;4967015;28;120624;-65
2021/10/12 09:00:14;;;;;;;12.77;6.45;;;;;;;15.77;64.62;101915.84;4967335;28;119275;-65
2021/10/12 09:03:28;;;;;;;12.43;5.75;;;;;;;15.82;64.33;101912.09;4955527;28;124803;-65
2021/10/12 09:06:00;;;;;;;9.95;4.70;;;;;;;15.86;64.33;101900.28;4949995;28;123913;-65
2021/10/12 09:08:35;;;;;;;12.27;5.20;;;;;;;15.89;64.39;101902.81;4965113;28;120494;-65
2021/10/12 09:11:04;;;;;;;8.52;4.95;;;;;;;15.97;64.43;101900.63;4968237;28;119085;-65
2021/10/12 09:13:48;;;;;;;13.07;5.72;;;;;;;16.06;64.56;101900.16;4969268;28;124833;-65
2021/10/12 09:16:17;;;;;;;12.02;5.35;;;;;;;16.15;64.63;101904.16;4967756;28;124072;-65
2021/10/12 09:18:55;;;;;;;12.77;5.18;;;;;;;16.23;64.61;101901.09;4950555;28;118170;-64
2021/10/12 09:21:29;;;;;;;12.45;5.07;;;;;;;16.31;64.65;101899.75;4958842;28;121928;-64
2021/10/12 09:24:23;;;;;;;13.52;5.28;;;;;;;16.38;64.37;101896.75;4948587;28;124143;-64
2021/10/12 09:27:04;;;;;;;11.23;5.22;;;;;;;16.43;64.34;101887.56;4949939;28;123849;-64
2021/10/12 09:29:37;;;;;;;8.00;4.35;;;;;;;16.48;64.42;101896.19;4965947;28;119942;-64
2021/10/12 09:32:06;;;;;;;7.93;4.28;;;;;;;16.54;64.43;101893.19;4966772;28;118853;-64
2021/10/12 09:34:34;;;;;;;9.40;4.13;;;;;;;16.58;64.40;101890.38;4967434;28;124680;-64
2021/10/12 09:37:07;;;;;;;13.13;4.40;;;;;;;16.61;64.29;101884.84;4952709;28;123528;-64
2021/10/12 09:39:39;;;;;;;10.18;4.50;;;;;;;16.64;64.21;101887.34;4956177;28;118515;-65
2021/10/12 09:42:10;;;;;;;8.10;4.35;;;;;;;16.66;63.85;101893.47;4953484;28;118378;-64
2021/10/12 09:44:48;;;;;;;9.73;4.22;;;;;;;16.66;64.14;101888.13;4973697;28;123336;-65
2021/10/12 09:47:16;;;;;;;9.73;3.75;;;;;;;16.66;63.78;101888.13;4961339;28;124591;-65
2021/10/12 09:49:44;;;;;;;9.52;3.65;;;;;;;16.67;63.84;101889.84;4964962;28;119380;-66
2021/10/12 09:52:21;;;;;;;7.72;3.47;;;;;;;16.67;63.79;101892.50;4950328;28;118993;-66
2021/10/12 09:54:57;;;;;;;6.72;3.33;;;;;;;16.66;63.87;101880.09;4975169;28;124884;-66
2021/10/12 09:57:28;;;;;;;7.15;3.15;;;;;;;16.66;63.81;101880.09;4982632;28;123991;-66
2021/10/12 09:59:55;;;;;;;8.50;3.20;;;;;;;16.67;63.85;101884.50;4974250;28;119307;-66
2021/10/12 10:02:24;;;;;;;6.32;3.17;;;;;;;16.67;63.90;101884.50;4979360;28;120615;-66
2021/10/12 10:04:53;;;;;;;7.85;3.28;;;;;;;16.67;63.73;101887.16;4970326;28;124813;-66
2021/10/12 10:07:29;;;;;;;8.95;3.20;;;;;;;16.64;63.68;101874.84;4958964;28;123878;-66
2021/10/12 10:10:00;;;;;;;5.13;2.83;;;;;;;16.61;63.81;101875.00;4971224;28;119297;-66
2021/10/12 10:12:28;;;;;;;4.10;2.35;;;;;;;16.60;63.65;101867.06;4974594;28;119006;-66
2021/10/12 10:14:55;;;;;;;6.15;2.28;;;;;;;16.58;63.68;101859.13;4958787;28;123175;-66
2021/10/12 10:17:23;;;;;;;6.57;2.30;;;;;;;16.57;63.95;101851.19;4981658;28;124364;-66
2021/10/12 10:19:52;;;;;;;4.28;2.20;;;;;;;16.57;63.77;101845.84;4970558;28;119773;-66
2021/10/12 10:22:34;;;;;;;5.13;2.30;;;;;;;16.58;63.82;101843.06;4974213;28;120985;-66
2021/10/12 10:25:32;;;;;;;4.68;1.83;;;;;;;16.60;63.90;101851.03;4967262;28;124923;-66
2021/10/12 10:28:18;;;;;;;3.05;1.50;;;;;;;16.64;63.93;101852.59;4953915;28;124588;-67
2021/10/12 10:30:47;;;;;;;4.63;1.40;;;;;;;16.71;64.18;101853.97;4972075;28;119461;-67
2021/10/12 10:33:32;;;;;;;3.05;1.45;;;;;;;16.77;64.31;101847.44;4954348;28;117904;-66
2021/10/12 10:36:01;;;;;;;2.47;1.20;;;;;;;16.85;64.60;101851.41;4941283;28;124826;-67
2021/10/12 10:38:31;;;;;;;6.05;2.00;;;;;;;16.96;64.50;101852.66;4968465;28;123937;-67
2021/10/12 10:41:05;;;;;;;8.02;2.10;;;;;;;17.07;64.53;101844.88;4946232;28;118362;-66
2021/10/12 10:43:51;;;;;;;4.45;1.80;;;;;;;17.18;64.54;101842.47;4972189;28;119896;-66
2021/10/12 10:46:30;;;;;;;4.22;1.92;;;;;;;17.25;64.36;101843.84;4970288;28;123889;-66
2021/10/12 10:49:16;;;;;;;4.47;1.92;;;;;;;17.35;64.23;101843.28;4971862;28;124894;-66
2021/10/12 10:51:55;;;;;;;4.65;2.08;;;;;;;17.41;64.00;101837.59;4965310;28;120245;-66
2021/10/12 10:54:36;;;;;;;5.15;1.60;;;;;;;17.48;64.19;101838.97;4952149;28;119049;-66
2021/10/12 10:57:25;;;;;;;4.07;1.60;;;;;;;17.58;64.43;101834.78;4970928;28;124258;-66
2021/10/12 11:00:11;;;;;;;4.25;1.60;;;;;;;17.73;64.12;101832.19;4966871;28;124769;-66
2021/10/12 11:02:38;;;;;;;4.75;1.35;;;;;;;17.83;64.15;101833.34;4957009;28;119775;-66
2021/10/12 11:05:05;;;;;;;2.22;1.30;;;;;;;17.92;63.86;101840.00;4952797;28;118541;-66
2021/10/12 11:07:33;;;;;;;2.60;1.20;;;;;;;18.03;63.50;101835.72;4969907;28;124319;-66
2021/10/12 11:10:00;;;;;;;3.00;1.17;;;;;;;18.09;63.27;101829.97;4968256;28;124250;-66
2021/10/12 11:12:30;;;;;;;4.95;1.40;;;;;;;18.12;63.02;101833.41;4965351;28;119252;-66
2021/10/12 11:15:08;;;;;;;3.58;1.58;;;;;;;18.12;62.85;101817.34;4971521;28;119799;-66
2021/10/12 11:17:36;;;;;;;3.92;1.90;;;;;;;18.14;62.94;101821.66;4966789;28;124288;-66
2021/10/12 11:20:09;;;;;;;4.22;1.60;;;;;;;18.20;62.83;101820.44;4969814;28;124462;-66
2021/10/12 11:22:41;;;;;;;4.88;1.63;;;;;;;18.26;63.23;101820.03;4967568;28;120014;-66
2021/10/12 11:25:09;;;;;;;3.63;1.42;;;;;;;18.33;62.78;101809.78;4966189;28;119268;-66
2021/10/12 11:27:41;;;;;;;2.45;1.30;;;;;;;18.38;62.77;101811.22;4967489;28;123998;-66